sensor_id;sensor_type;location;lat;lon;timestamp;P1;durP1;ratioP1;P2;durP2;ratioP2
16862;SDS011;52193;48.216;-1.698;2023-06-26T00:00:09;2.55;;;1.40;;
16862;SDS011;52193;48.216;-1.698;2023-06-26T00:02:37;2.83;;;1.40;;
16862;SDS011;52193;48.216;-1.698;2023-06-26T00:05:04;3.40;;;1.50;;
16862;SDS011;52193;48.216;-1.698;2023-06-26T00:07:33;2.67;;;1.30;;
16862;SDS011;52193;48.216;-1.698;2023-06-26T00:10:00;4.05;;;1.58;;
16862;SDS011;52193;48.216;-1.698;2023-06-26T00:12:28;2.47;;;1.70;;
16862;SDS011;52193;48.216;-1.698;2023-06-26T00:14:55;3.17;;;1.60;;
16862;SDS011;52193;48.216;-1.698;2023-06-26T00:17:22;3.25;;;1.40;;
16862;SDS011;52193;48.216;-1.698;2023-06-26T00:19:49;2.28;;;1.38;;
16862;SDS011;52193;48.216;-1.698;2023-06-26T00:22:17;4.03;;;1.75;;
16862;SDS011;52193;48.216;-1.698;2023-06-26T00:24:45;5.43;;;1.67;;
16862;SDS011;52193;48.216;-1.698;2023-06-26T00:27:12;2.42;;;1.42;;
16862;SDS011;52193;48.216;-1.698;2023-06-26T00:29:39;2.67;;;1.33;;
16862;SDS011;52193;48.216;-1.698;2023-06-26T00:32:06;2.25;;;1.40;;
16862;SDS011;52193;48.216;-1.698;2023-06-26T00:34:33;5.22;;;1.60;;
16862;SDS011;52193;48.216;-1.698;2023-06-26T00:37:00;2.80;;;1.40;;
16862;SDS011;52193;48.216;-1.698;2023-06-26T00:39:27;3.03;;;1.40;;
16862;SDS011;52193;48.216;-1.698;2023-06-26T00:41:55;3.45;;;1.40;;
16862;SDS011;52193;48.216;-1.698;2023-06-26T00:44:22;3.03;;;1.45;;
16862;SDS011;52193;48.216;-1.698;2023-06-26T00:46:49;4.07;;;1.65;;
16862;SDS011;52193;48.216;-1.698;2023-06-26T00:49:17;3.53;;;1.88;;
16862;SDS011;52193;48.216;-1.698;2023-06-26T00:51:44;4.30;;;1.70;;
16862;SDS011;52193;48.216;-1.698;2023-06-26T00:54:11;4.07;;;1.50;;
16862;SDS011;52193;48.216;-1.698;2023-06-26T00:56:44;3.17;;;1.55;;
16862;SDS011;52193;48.216;-1.698;2023-06-26T00:59:13;5.68;;;1.70;;
16862;SDS011;52193;48.216;-1.698;2023-06-26T01:01:40;2.83;;;1.35;;
16862;SDS011;52193;48.216;-1.698;2023-06-26T01:04:07;3.22;;;1.60;;
16862;SDS011;52193;48.216;-1.698;2023-06-26T01:06:43;2.78;;;1.48;;
16862;SDS011;52193;48.216;-1.698;2023-06-26T01:09:15;3.17;;;1.70;;
16862;SDS011;52193;48.216;-1.698;2023-06-26T01:11:43;2.70;;;1.60;;
16862;SDS011;52193;48.216;-1.698;2023-06-26T01:14:10;4.13;;;1.80;;
16862;SDS011;52193;48.216;-1.698;2023-06-26T01:16:39;2.92;;;1.58;;
16862;SDS011;52193;48.216;-1.698;2023-06-26T01:19:13;3.95;;;1.83;;
16862;SDS011;52193;48.216;-1.698;2023-06-26T01:21:49;4.53;;;1.88;;
16862;SDS011;52193;48.216;-1.698;2023-06-26T01:24:22;4.15;;;1.88;;
16862;SDS011;52193;48.216;-1.698;2023-06-26T01:26:53;3.55;;;1.75;;
16862;SDS011;52193;48.216;-1.698;2023-06-26T01:29:20;3.75;;;1.67;;
16862;SDS011;52193;48.216;-1.698;2023-06-26T01:31:49;4.28;;;1.52;;
16862;SDS011;52193;48.216;-1.698;2023-06-26T01:34:17;5.03;;;2.22;;
16862;SDS011;52193;48.216;-1.698;2023-06-26T01:36:44;3.15;;;1.85;;
16862;SDS011;52193;48.216;-1.698;2023-06-26T01:39:13;3.47;;;1.50;;
16862;SDS011;52193;48.216;-1.698;2023-06-26T01:41:42;4.20;;;2.17;;
16862;SDS011;52193;48.216;-1.698;2023-06-26T01:44:14;3.35;;;1.90;;
16862;SDS011;52193;48.216;-1.698;2023-06-26T01:46:51;5.65;;;2.05;;
16862;SDS011;52193;48.216;-1.698;2023-06-26T01:49:25;2.38;;;1.50;;
16862;SDS011;52193;48.216;-1.698;2023-06-26T01:51:58;4.35;;;1.60;;
16862;SDS011;52193;48.216;-1.698;2023-06-26T01:54:33;7.10;;;2.13;;
16862;SDS011;52193;48.216;-1.698;2023-06-26T01:57:07;3.20;;;1.85;;
16862;SDS011;52193;48.216;-1.698;2023-06-26T01:59:37;2.78;;;1.52;;
16862;SDS011;52193;48.216;-1.698;2023-06-26T02:02:06;4.13;;;1.98;;
16862;SDS011;52193;48.216;-1.698;2023-06-26T02:04:33;4.38;;;1.83;;
16862;SDS011;52193;48.216;-1.698;2023-06-26T02:07:01;3.33;;;1.98;;
16862;SDS011;52193;48.216;-1.698;2023-06-26T02:09:27;3.88;;;1.80;;
16862;SDS011;52193;48.216;-1.698;2023-06-26T02:11:54;4.93;;;2.10;;
16862;SDS011;52193;48.216;-1.698;2023-06-26T02:14:21;6.88;;;2.10;;
16862;SDS011;52193;48.216;-1.698;2023-06-26T02:16:49;7.72;;;2.08;;
16862;SDS011;52193;48.216;-1.698;2023-06-26T02:19:16;3.72;;;2.05;;
16862;SDS011;52193;48.216;-1.698;2023-06-26T02:21:46;4.30;;;2.08;;
16862;SDS011;52193;48.216;-1.698;2023-06-26T02:24:14;4.88;;;2.20;;
16862;SDS011;52193;48.216;-1.698;2023-06-26T02:26:41;3.03;;;1.67;;
16862;SDS011;52193;48.216;-1.698;2023-06-26T02:29:07;4.72;;;2.17;;
16862;SDS011;52193;48.216;-1.698;2023-06-26T02:31:34;2.55;;;1.77;;
16862;SDS011;52193;48.216;-1.698;2023-06-26T02:34:03;5.20;;;2.13;;
16862;SDS011;52193;48.216;-1.698;2023-06-26T02:36:30;4.68;;;1.77;;
16862;SDS011;52193;48.216;-1.698;2023-06-26T02:38:57;3.60;;;1.90;;
16862;SDS011;52193;48.216;-1.698;2023-06-26T02:41:24;3.67;;;2.20;;
16862;SDS011;52193;48.216;-1.698;2023-06-26T02:43:50;6.57;;;2.10;;
16862;SDS011;52193;48.216;-1.698;2023-06-26T02:46:17;3.08;;;1.85;;
16862;SDS011;52193;48.216;-1.698;2023-06-26T02:48:44;2.30;;;1.60;;
16862;SDS011;52193;48.216;-1.698;2023-06-26T02:51:12;3.63;;;1.70;;
16862;SDS011;52193;48.216;-1.698;2023-06-26T02:53:39;3.65;;;1.85;;
16862;SDS011;52193;48.216;-1.698;2023-06-26T02:56:06;2.33;;;1.63;;
16862;SDS011;52193;48.216;-1.698;2023-06-26T02:58:33;4.28;;;1.77;;
16862;SDS011;52193;48.216;-1.698;2023-06-26T03:01:00;2.95;;;1.60;;
16862;SDS011;52193;48.216;-1.698;2023-06-26T03:03:27;4.47;;;2.00;;
16862;SDS011;52193;48.216;-1.698;2023-06-26T03:05:54;4.60;;;2.15;;
16862;SDS011;52193;48.216;-1.698;2023-06-26T03:08:23;3.00;;;1.83;;
16862;SDS011;52193;48.216;-1.698;2023-06-26T03:10:50;4.05;;;1.95;;
16862;SDS011;52193;48.216;-1.698;2023-06-26T03:13:17;3.88;;;2.15;;
16862;SDS011;52193;48.216;-1.698;2023-06-26T03:15:44;6.68;;;2.30;;
16862;SDS011;52193;48.216;-1.698;2023-06-26T03:18:11;5.90;;;2.17;;
16862;SDS011;52193;48.216;-1.698;2023-06-26T03:20:38;3.92;;;1.83;;
16862;SDS011;52193;48.216;-1.698;2023-06-26T03:23:05;4.28;;;1.80;;
16862;SDS011;52193;48.216;-1.698;2023-06-26T03:25:33;4.93;;;2.08;;
16862;SDS011;52193;48.216;-1.698;2023-06-26T03:28:00;4.43;;;1.80;;
16862;SDS011;52193;48.216;-1.698;2023-06-26T03:30:27;3.38;;;2.28;;
16862;SDS011;52193;48.216;-1.698;2023-06-26T03:32:54;5.35;;;2.05;;
16862;SDS011;52193;48.216;-1.698;2023-06-26T03:35:21;6.55;;;2.28;;
16862;SDS011;52193;48.216;-1.698;2023-06-26T03:37:48;3.42;;;1.95;;
16862;SDS011;52193;48.216;-1.698;2023-06-26T03:40:16;4.63;;;1.92;;
16862;SDS011;52193;48.216;-1.698;2023-06-26T03:42:44;4.38;;;2.20;;
16862;SDS011;52193;48.216;-1.698;2023-06-26T03:45:11;4.63;;;1.92;;
16862;SDS011;52193;48.216;-1.698;2023-06-26T03:47:38;3.63;;;2.03;;
16862;SDS011;52193;48.216;-1.698;2023-06-26T03:50:05;3.97;;;1.90;;
16862;SDS011;52193;48.216;-1.698;2023-06-26T03:52:32;5.85;;;2.38;;
16862;SDS011;52193;48.216;-1.698;2023-06-26T03:54:59;6.13;;;2.17;;
16862;SDS011;52193;48.216;-1.698;2023-06-26T03:57:28;2.83;;;1.90;;
16862;SDS011;52193;48.216;-1.698;2023-06-26T03:59:56;3.25;;;1.95;;
16862;SDS011;52193;48.216;-1.698;2023-06-26T04:02:23;4.10;;;2.13;;
16862;SDS011;52193;48.216;-1.698;2023-06-26T04:04:50;4.07;;;2.20;;
16862;SDS011;52193;48.216;-1.698;2023-06-26T04:07:17;5.07;;;2.20;;
16862;SDS011;52193;48.216;-1.698;2023-06-26T04:09:44;3.97;;;2.28;;
16862;SDS011;52193;48.216;-1.698;2023-06-26T04:12:11;4.72;;;1.83;;
16862;SDS011;52193;48.216;-1.698;2023-06-26T04:14:38;4.93;;;2.50;;
16862;SDS011;52193;48.216;-1.698;2023-06-26T04:17:06;3.35;;;2.08;;
16862;SDS011;52193;48.216;-1.698;2023-06-26T04:19:33;4.47;;;2.20;;
16862;SDS011;52193;48.216;-1.698;2023-06-26T04:22:01;3.53;;;2.28;;
16862;SDS011;52193;48.216;-1.698;2023-06-26T04:24:28;3.85;;;2.35;;
16862;SDS011;52193;48.216;-1.698;2023-06-26T04:26:55;3.97;;;2.15;;
16862;SDS011;52193;48.216;-1.698;2023-06-26T04:29:22;3.15;;;2.00;;
16862;SDS011;52193;48.216;-1.698;2023-06-26T04:31:50;4.88;;;2.45;;
16862;SDS011;52193;48.216;-1.698;2023-06-26T04:34:18;3.67;;;1.90;;
16862;SDS011;52193;48.216;-1.698;2023-06-26T04:36:45;2.42;;;1.80;;
16862;SDS011;52193;48.216;-1.698;2023-06-26T04:39:13;4.28;;;2.33;;
16862;SDS011;52193;48.216;-1.698;2023-06-26T04:41:40;4.15;;;1.98;;
16862;SDS011;52193;48.216;-1.698;2023-06-26T04:44:10;3.88;;;2.05;;
16862;SDS011;52193;48.216;-1.698;2023-06-26T04:46:37;4.13;;;2.20;;
16862;SDS011;52193;48.216;-1.698;2023-06-26T04:49:06;5.10;;;2.47;;
16862;SDS011;52193;48.216;-1.698;2023-06-26T04:51:34;5.72;;;2.40;;
16862;SDS011;52193;48.216;-1.698;2023-06-26T04:54:05;5.68;;;2.30;;
16862;SDS011;52193;48.216;-1.698;2023-06-26T04:56:32;5.22;;;2.20;;
16862;SDS011;52193;48.216;-1.698;2023-06-26T04:58:59;2.72;;;2.05;;
16862;SDS011;52193;48.216;-1.698;2023-06-26T05:01:26;5.07;;;2.25;;
16862;SDS011;52193;48.216;-1.698;2023-06-26T05:03:54;4.65;;;2.13;;
16862;SDS011;52193;48.216;-1.698;2023-06-26T05:06:21;2.88;;;1.92;;
16862;SDS011;52193;48.216;-1.698;2023-06-26T05:08:50;4.85;;;2.25;;
16862;SDS011;52193;48.216;-1.698;2023-06-26T05:11:17;5.57;;;2.65;;
16862;SDS011;52193;48.216;-1.698;2023-06-26T05:13:44;5.63;;;2.30;;
16862;SDS011;52193;48.216;-1.698;2023-06-26T05:16:11;3.92;;;2.28;;
16862;SDS011;52193;48.216;-1.698;2023-06-26T05:18:38;4.32;;;2.30;;
16862;SDS011;52193;48.216;-1.698;2023-06-26T05:21:05;5.45;;;2.58;;
16862;SDS011;52193;48.216;-1.698;2023-06-26T05:23:33;4.75;;;2.30;;
16862;SDS011;52193;48.216;-1.698;2023-06-26T05:26:02;3.88;;;2.30;;
16862;SDS011;52193;48.216;-1.698;2023-06-26T05:28:30;2.78;;;2.13;;
16862;SDS011;52193;48.216;-1.698;2023-06-26T05:30:57;4.00;;;2.20;;
16862;SDS011;52193;48.216;-1.698;2023-06-26T05:33:25;10.18;;;2.60;;
16862;SDS011;52193;48.216;-1.698;2023-06-26T05:35:53;6.75;;;2.50;;
16862;SDS011;52193;48.216;-1.698;2023-06-26T05:38:20;3.88;;;2.20;;
16862;SDS011;52193;48.216;-1.698;2023-06-26T05:40:48;2.63;;;1.80;;
16862;SDS011;52193;48.216;-1.698;2023-06-26T05:43:17;5.35;;;2.42;;
16862;SDS011;52193;48.216;-1.698;2023-06-26T05:45:46;5.30;;;2.60;;
16862;SDS011;52193;48.216;-1.698;2023-06-26T05:48:13;6.82;;;2.65;;
16862;SDS011;52193;48.216;-1.698;2023-06-26T05:50:41;6.25;;;2.60;;
16862;SDS011;52193;48.216;-1.698;2023-06-26T05:53:09;6.07;;;2.55;;
16862;SDS011;52193;48.216;-1.698;2023-06-26T05:55:36;5.75;;;2.75;;
16862;SDS011;52193;48.216;-1.698;2023-06-26T05:58:06;5.78;;;2.83;;
16862;SDS011;52193;48.216;-1.698;2023-06-26T06:00:35;4.32;;;2.45;;
16862;SDS011;52193;48.216;-1.698;2023-06-26T06:03:02;4.18;;;2.20;;
16862;SDS011;52193;48.216;-1.698;2023-06-26T06:05:29;4.15;;;2.20;;
16862;SDS011;52193;48.216;-1.698;2023-06-26T06:07:56;6.35;;;2.88;;
16862;SDS011;52193;48.216;-1.698;2023-06-26T06:10:23;5.30;;;2.40;;
16862;SDS011;52193;48.216;-1.698;2023-06-26T06:12:50;5.47;;;2.50;;
16862;SDS011;52193;48.216;-1.698;2023-06-26T06:15:17;4.13;;;2.30;;
16862;SDS011;52193;48.216;-1.698;2023-06-26T06:17:45;4.90;;;2.55;;
16862;SDS011;52193;48.216;-1.698;2023-06-26T06:20:12;7.88;;;2.53;;
16862;SDS011;52193;48.216;-1.698;2023-06-26T06:22:39;5.47;;;2.30;;
16862;SDS011;52193;48.216;-1.698;2023-06-26T06:25:06;8.45;;;2.65;;
16862;SDS011;52193;48.216;-1.698;2023-06-26T06:27:33;5.38;;;2.33;;
16862;SDS011;52193;48.216;-1.698;2023-06-26T06:30:00;6.68;;;2.60;;
16862;SDS011;52193;48.216;-1.698;2023-06-26T06:32:27;5.82;;;2.35;;
16862;SDS011;52193;48.216;-1.698;2023-06-26T06:34:56;6.38;;;2.70;;
16862;SDS011;52193;48.216;-1.698;2023-06-26T06:37:23;7.68;;;2.75;;
16862;SDS011;52193;48.216;-1.698;2023-06-26T06:39:51;3.72;;;2.00;;
16862;SDS011;52193;48.216;-1.698;2023-06-26T06:42:18;6.63;;;2.72;;
16862;SDS011;52193;48.216;-1.698;2023-06-26T06:44:45;5.80;;;2.20;;
16862;SDS011;52193;48.216;-1.698;2023-06-26T06:47:12;6.10;;;2.28;;
16862;SDS011;52193;48.216;-1.698;2023-06-26T06:49:39;7.63;;;2.78;;
16862;SDS011;52193;48.216;-1.698;2023-06-26T06:52:07;6.72;;;2.35;;
16862;SDS011;52193;48.216;-1.698;2023-06-26T06:54:46;7.22;;;2.80;;
16862;SDS011;52193;48.216;-1.698;2023-06-26T06:57:18;5.22;;;2.25;;
16862;SDS011;52193;48.216;-1.698;2023-06-26T06:59:45;5.25;;;2.40;;
16862;SDS011;52193;48.216;-1.698;2023-06-26T07:02:13;7.45;;;2.53;;
16862;SDS011;52193;48.216;-1.698;2023-06-26T07:04:41;7.95;;;2.85;;
16862;SDS011;52193;48.216;-1.698;2023-06-26T07:07:09;4.60;;;2.28;;
16862;SDS011;52193;48.216;-1.698;2023-06-26T07:09:36;5.00;;;1.92;;
16862;SDS011;52193;48.216;-1.698;2023-06-26T07:12:03;6.20;;;2.22;;
16862;SDS011;52193;48.216;-1.698;2023-06-26T07:14:31;6.90;;;2.50;;
16862;SDS011;52193;48.216;-1.698;2023-06-26T07:16:58;4.60;;;2.15;;
16862;SDS011;52193;48.216;-1.698;2023-06-26T07:19:25;6.88;;;2.40;;
16862;SDS011;52193;48.216;-1.698;2023-06-26T07:21:51;4.40;;;2.30;;
16862;SDS011;52193;48.216;-1.698;2023-06-26T07:24:20;4.18;;;2.15;;
16862;SDS011;52193;48.216;-1.698;2023-06-26T07:26:47;5.63;;;2.13;;
16862;SDS011;52193;48.216;-1.698;2023-06-26T07:29:13;5.40;;;1.92;;
16862;SDS011;52193;48.216;-1.698;2023-06-26T07:31:40;5.75;;;1.95;;
16862;SDS011;52193;48.216;-1.698;2023-06-26T07:34:07;3.10;;;2.03;;
16862;SDS011;52193;48.216;-1.698;2023-06-26T07:36:34;3.55;;;1.88;;
16862;SDS011;52193;48.216;-1.698;2023-06-26T07:39:01;6.55;;;2.53;;
16862;SDS011;52193;48.216;-1.698;2023-06-26T07:41:29;2.75;;;1.92;;
16862;SDS011;52193;48.216;-1.698;2023-06-26T07:43:56;4.78;;;1.83;;
16862;SDS011;52193;48.216;-1.698;2023-06-26T07:46:24;3.40;;;1.80;;
16862;SDS011;52193;48.216;-1.698;2023-06-26T07:48:51;4.85;;;2.22;;
16862;SDS011;52193;48.216;-1.698;2023-06-26T07:51:18;4.15;;;1.90;;
16862;SDS011;52193;48.216;-1.698;2023-06-26T07:53:45;3.60;;;1.88;;
16862;SDS011;52193;48.216;-1.698;2023-06-26T07:56:12;6.05;;;1.85;;
16862;SDS011;52193;48.216;-1.698;2023-06-26T07:58:40;3.78;;;1.90;;
16862;SDS011;52193;48.216;-1.698;2023-06-26T08:01:07;4.03;;;1.85;;
16862;SDS011;52193;48.216;-1.698;2023-06-26T08:03:34;4.78;;;1.90;;
16862;SDS011;52193;48.216;-1.698;2023-06-26T08:06:01;3.42;;;2.00;;
16862;SDS011;52193;48.216;-1.698;2023-06-26T08:08:28;3.03;;;1.70;;
16862;SDS011;52193;48.216;-1.698;2023-06-26T08:10:55;3.40;;;1.90;;
16862;SDS011;52193;48.216;-1.698;2023-06-26T08:13:22;7.15;;;1.88;;
16862;SDS011;52193;48.216;-1.698;2023-06-26T08:15:50;3.45;;;1.73;;
16862;SDS011;52193;48.216;-1.698;2023-06-26T08:18:17;2.92;;;2.10;;
16862;SDS011;52193;48.216;-1.698;2023-06-26T08:20:44;5.38;;;2.10;;
16862;SDS011;52193;48.216;-1.698;2023-06-26T08:23:11;7.07;;;2.10;;
16862;SDS011;52193;48.216;-1.698;2023-06-26T08:25:38;3.38;;;2.00;;
16862;SDS011;52193;48.216;-1.698;2023-06-26T08:28:05;3.35;;;1.60;;
16862;SDS011;52193;48.216;-1.698;2023-06-26T08:30:32;5.85;;;2.03;;
16862;SDS011;52193;48.216;-1.698;2023-06-26T08:33:00;5.82;;;2.35;;
16862;SDS011;52193;48.216;-1.698;2023-06-26T08:35:27;3.67;;;1.80;;
16862;SDS011;52193;48.216;-1.698;2023-06-26T08:37:54;3.88;;;1.73;;
16862;SDS011;52193;48.216;-1.698;2023-06-26T08:40:21;6.22;;;2.05;;
16862;SDS011;52193;48.216;-1.698;2023-06-26T08:42:48;2.28;;;1.58;;
16862;SDS011;52193;48.216;-1.698;2023-06-26T08:45:18;4.28;;;1.52;;
16862;SDS011;52193;48.216;-1.698;2023-06-26T08:47:45;3.20;;;1.58;;
16862;SDS011;52193;48.216;-1.698;2023-06-26T08:50:19;6.80;;;1.58;;
16862;SDS011;52193;48.216;-1.698;2023-06-26T08:52:50;4.10;;;2.00;;
16862;SDS011;52193;48.216;-1.698;2023-06-26T08:55:20;5.25;;;1.40;;
16862;SDS011;52193;48.216;-1.698;2023-06-26T08:57:49;4.38;;;1.98;;
16862;SDS011;52193;48.216;-1.698;2023-06-26T09:00:17;7.32;;;1.95;;
16862;SDS011;52193;48.216;-1.698;2023-06-26T09:02:45;3.85;;;1.92;;
16862;SDS011;52193;48.216;-1.698;2023-06-26T09:05:12;4.88;;;1.88;;
16862;SDS011;52193;48.216;-1.698;2023-06-26T09:07:40;3.70;;;1.80;;
16862;SDS011;52193;48.216;-1.698;2023-06-26T09:10:07;3.28;;;1.77;;
16862;SDS011;52193;48.216;-1.698;2023-06-26T09:12:35;2.65;;;1.60;;
16862;SDS011;52193;48.216;-1.698;2023-06-26T09:15:03;4.70;;;1.98;;
16862;SDS011;52193;48.216;-1.698;2023-06-26T09:17:33;2.80;;;1.73;;
16862;SDS011;52193;48.216;-1.698;2023-06-26T09:20:06;2.63;;;1.45;;
16862;SDS011;52193;48.216;-1.698;2023-06-26T09:22:35;3.53;;;1.90;;
16862;SDS011;52193;48.216;-1.698;2023-06-26T09:25:05;3.72;;;1.73;;
16862;SDS011;52193;48.216;-1.698;2023-06-26T09:27:33;3.83;;;2.08;;
16862;SDS011;52193;48.216;-1.698;2023-06-26T09:30:01;3.70;;;2.00;;
16862;SDS011;52193;48.216;-1.698;2023-06-26T09:32:29;2.85;;;1.40;;
16862;SDS011;52193;48.216;-1.698;2023-06-26T09:34:56;4.45;;;1.77;;
16862;SDS011;52193;48.216;-1.698;2023-06-26T09:37:25;1.92;;;1.20;;
16862;SDS011;52193;48.216;-1.698;2023-06-26T09:39:52;2.45;;;1.52;;
16862;SDS011;52193;48.216;-1.698;2023-06-26T09:42:22;4.60;;;1.95;;
16862;SDS011;52193;48.216;-1.698;2023-06-26T09:44:50;2.92;;;1.63;;
16862;SDS011;52193;48.216;-1.698;2023-06-26T09:47:19;3.08;;;1.63;;
16862;SDS011;52193;48.216;-1.698;2023-06-26T09:49:46;4.15;;;1.73;;
16862;SDS011;52193;48.216;-1.698;2023-06-26T09:52:14;2.60;;;1.48;;
16862;SDS011;52193;48.216;-1.698;2023-06-26T09:54:42;5.10;;;1.60;;
16862;SDS011;52193;48.216;-1.698;2023-06-26T09:57:10;3.58;;;1.67;;
16862;SDS011;52193;48.216;-1.698;2023-06-26T09:59:39;2.97;;;1.60;;
16862;SDS011;52193;48.216;-1.698;2023-06-26T10:02:07;3.40;;;1.58;;
16862;SDS011;52193;48.216;-1.698;2023-06-26T10:04:35;3.25;;;1.65;;
16862;SDS011;52193;48.216;-1.698;2023-06-26T10:07:04;1.85;;;1.30;;
16862;SDS011;52193;48.216;-1.698;2023-06-26T10:09:32;2.45;;;1.48;;
16862;SDS011;52193;48.216;-1.698;2023-06-26T10:12:03;2.40;;;1.63;;
16862;SDS011;52193;48.216;-1.698;2023-06-26T10:14:33;2.58;;;1.70;;
16862;SDS011;52193;48.216;-1.698;2023-06-26T10:17:03;3.67;;;1.60;;
16862;SDS011;52193;48.216;-1.698;2023-06-26T10:19:33;2.78;;;1.70;;
16862;SDS011;52193;48.216;-1.698;2023-06-26T10:22:03;2.55;;;1.42;;
16862;SDS011;52193;48.216;-1.698;2023-06-26T10:24:31;3.40;;;1.88;;
16862;SDS011;52193;48.216;-1.698;2023-06-26T10:27:02;4.35;;;1.88;;
16862;SDS011;52193;48.216;-1.698;2023-06-26T10:29:34;6.30;;;1.90;;
16862;SDS011;52193;48.216;-1.698;2023-06-26T10:32:04;6.38;;;2.40;;
16862;SDS011;52193;48.216;-1.698;2023-06-26T10:34:32;5.00;;;1.70;;
16862;SDS011;52193;48.216;-1.698;2023-06-26T10:36:59;6.57;;;2.10;;
16862;SDS011;52193;48.216;-1.698;2023-06-26T10:39:27;4.85;;;2.00;;
16862;SDS011;52193;48.216;-1.698;2023-06-26T10:42:08;2.25;;;1.60;;
16862;SDS011;52193;48.216;-1.698;2023-06-26T10:44:42;4.25;;;2.10;;
16862;SDS011;52193;48.216;-1.698;2023-06-26T10:47:11;2.92;;;1.70;;
16862;SDS011;52193;48.216;-1.698;2023-06-26T10:49:38;4.35;;;1.90;;
16862;SDS011;52193;48.216;-1.698;2023-06-26T10:52:13;2.00;;;1.63;;
16862;SDS011;52193;48.216;-1.698;2023-06-26T10:54:39;3.92;;;2.10;;
16862;SDS011;52193;48.216;-1.698;2023-06-26T10:57:07;5.13;;;2.15;;
16862;SDS011;52193;48.216;-1.698;2023-06-26T10:59:34;4.35;;;1.90;;
16862;SDS011;52193;48.216;-1.698;2023-06-26T11:02:05;5.82;;;2.13;;
16862;SDS011;52193;48.216;-1.698;2023-06-26T11:04:37;3.05;;;1.70;;
16862;SDS011;52193;48.216;-1.698;2023-06-26T11:07:15;2.95;;;1.67;;
16862;SDS011;52193;48.216;-1.698;2023-06-26T11:09:54;2.40;;;1.40;;
16862;SDS011;52193;48.216;-1.698;2023-06-26T11:12:34;4.72;;;1.65;;
16862;SDS011;52193;48.216;-1.698;2023-06-26T11:15:03;4.13;;;1.80;;
16862;SDS011;52193;48.216;-1.698;2023-06-26T11:17:30;2.72;;;1.77;;
16862;SDS011;52193;48.216;-1.698;2023-06-26T11:19:59;3.85;;;1.70;;
16862;SDS011;52193;48.216;-1.698;2023-06-26T11:22:27;4.57;;;1.70;;
16862;SDS011;52193;48.216;-1.698;2023-06-26T11:24:54;2.45;;;1.50;;
16862;SDS011;52193;48.216;-1.698;2023-06-26T11:27:30;3.47;;;1.55;;
16862;SDS011;52193;48.216;-1.698;2023-06-26T11:29:57;4.95;;;1.80;;
16862;SDS011;52193;48.216;-1.698;2023-06-26T11:32:26;2.47;;;1.70;;
16862;SDS011;52193;48.216;-1.698;2023-06-26T11:34:54;3.83;;;1.70;;
16862;SDS011;52193;48.216;-1.698;2023-06-26T11:37:22;2.25;;;1.67;;
16862;SDS011;52193;48.216;-1.698;2023-06-26T11:39:50;2.92;;;1.45;;
16862;SDS011;52193;48.216;-1.698;2023-06-26T11:42:17;2.55;;;1.60;;
16862;SDS011;52193;48.216;-1.698;2023-06-26T11:44:46;3.97;;;1.65;;
16862;SDS011;52193;48.216;-1.698;2023-06-26T11:47:13;3.95;;;2.20;;
16862;SDS011;52193;48.216;-1.698;2023-06-26T11:49:44;3.45;;;2.13;;
16862;SDS011;52193;48.216;-1.698;2023-06-26T11:52:12;7.10;;;2.10;;
16862;SDS011;52193;48.216;-1.698;2023-06-26T11:54:41;3.28;;;1.60;;
16862;SDS011;52193;48.216;-1.698;2023-06-26T11:57:13;3.45;;;1.60;;
16862;SDS011;52193;48.216;-1.698;2023-06-26T11:59:42;5.40;;;1.90;;
16862;SDS011;52193;48.216;-1.698;2023-06-26T12:02:10;2.13;;;1.77;;
16862;SDS011;52193;48.216;-1.698;2023-06-26T12:04:40;2.10;;;1.88;;
16862;SDS011;52193;48.216;-1.698;2023-06-26T12:07:08;2.30;;;1.70;;
16862;SDS011;52193;48.216;-1.698;2023-06-26T12:09:39;4.25;;;1.80;;
16862;SDS011;52193;48.216;-1.698;2023-06-26T12:12:09;3.55;;;1.90;;
16862;SDS011;52193;48.216;-1.698;2023-06-26T12:14:37;3.97;;;1.65;;
16862;SDS011;52193;48.216;-1.698;2023-06-26T12:17:07;1.55;;;1.25;;
16862;SDS011;52193;48.216;-1.698;2023-06-26T12:19:36;2.05;;;1.40;;
16862;SDS011;52193;48.216;-1.698;2023-06-26T12:22:06;1.58;;;1.27;;
16862;SDS011;52193;48.216;-1.698;2023-06-26T12:24:34;1.75;;;1.40;;
16862;SDS011;52193;48.216;-1.698;2023-06-26T12:27:07;2.85;;;1.58;;
16862;SDS011;52193;48.216;-1.698;2023-06-26T12:29:34;3.28;;;1.38;;
16862;SDS011;52193;48.216;-1.698;2023-06-26T12:32:02;2.58;;;1.45;;
16862;SDS011;52193;48.216;-1.698;2023-06-26T12:34:31;1.88;;;1.23;;
16862;SDS011;52193;48.216;-1.698;2023-06-26T12:36:59;2.22;;;1.45;;
16862;SDS011;52193;48.216;-1.698;2023-06-26T12:39:28;3.70;;;1.52;;
16862;SDS011;52193;48.216;-1.698;2023-06-26T12:41:57;2.70;;;1.48;;
16862;SDS011;52193;48.216;-1.698;2023-06-26T12:44:28;2.05;;;1.17;;
16862;SDS011;52193;48.216;-1.698;2023-06-26T12:46:56;2.33;;;1.58;;
16862;SDS011;52193;48.216;-1.698;2023-06-26T12:49:31;2.38;;;1.73;;
16862;SDS011;52193;48.216;-1.698;2023-06-26T12:52:00;2.10;;;1.30;;
16862;SDS011;52193;48.216;-1.698;2023-06-26T12:54:28;2.78;;;1.40;;
16862;SDS011;52193;48.216;-1.698;2023-06-26T12:56:55;1.60;;;1.30;;
16862;SDS011;52193;48.216;-1.698;2023-06-26T12:59:22;3.15;;;1.60;;
16862;SDS011;52193;48.216;-1.698;2023-06-26T13:01:51;3.08;;;1.77;;
16862;SDS011;52193;48.216;-1.698;2023-06-26T13:04:18;3.63;;;1.58;;
16862;SDS011;52193;48.216;-1.698;2023-06-26T13:06:45;5.57;;;1.73;;
16862;SDS011;52193;48.216;-1.698;2023-06-26T13:09:12;2.13;;;1.33;;
16862;SDS011;52193;48.216;-1.698;2023-06-26T13:11:39;2.72;;;1.30;;
16862;SDS011;52193;48.216;-1.698;2023-06-26T13:14:06;4.15;;;1.80;;
16862;SDS011;52193;48.216;-1.698;2023-06-26T13:16:33;3.53;;;1.60;;
16862;SDS011;52193;48.216;-1.698;2023-06-26T13:19:01;3.65;;;1.80;;
16862;SDS011;52193;48.216;-1.698;2023-06-26T13:21:28;2.67;;;1.20;;
16862;SDS011;52193;48.216;-1.698;2023-06-26T13:23:55;2.78;;;1.60;;
16862;SDS011;52193;48.216;-1.698;2023-06-26T13:26:24;2.05;;;1.55;;
16862;SDS011;52193;48.216;-1.698;2023-06-26T13:28:51;4.22;;;1.90;;
16862;SDS011;52193;48.216;-1.698;2023-06-26T13:31:18;3.67;;;1.73;;
16862;SDS011;52193;48.216;-1.698;2023-06-26T13:33:46;3.13;;;1.60;;
16862;SDS011;52193;48.216;-1.698;2023-06-26T13:36:16;2.30;;;1.58;;
16862;SDS011;52193;48.216;-1.698;2023-06-26T13:38:43;4.25;;;1.50;;
16862;SDS011;52193;48.216;-1.698;2023-06-26T13:41:10;2.55;;;1.58;;
16862;SDS011;52193;48.216;-1.698;2023-06-26T13:43:37;2.97;;;1.20;;
16862;SDS011;52193;48.216;-1.698;2023-06-26T13:46:04;2.63;;;1.40;;
16862;SDS011;52193;48.216;-1.698;2023-06-26T13:48:31;1.80;;;1.25;;
16862;SDS011;52193;48.216;-1.698;2023-06-26T13:50:58;3.78;;;1.50;;
16862;SDS011;52193;48.216;-1.698;2023-06-26T13:53:27;2.80;;;1.58;;
16862;SDS011;52193;48.216;-1.698;2023-06-26T13:55:53;3.00;;;1.60;;
16862;SDS011;52193;48.216;-1.698;2023-06-26T13:58:20;2.92;;;1.70;;
16862;SDS011;52193;48.216;-1.698;2023-06-26T14:00:51;4.30;;;1.58;;
16862;SDS011;52193;48.216;-1.698;2023-06-26T14:03:18;2.85;;;1.50;;
16862;SDS011;52193;48.216;-1.698;2023-06-26T14:05:45;2.33;;;1.40;;
16862;SDS011;52193;48.216;-1.698;2023-06-26T14:08:12;5.15;;;1.88;;
16862;SDS011;52193;48.216;-1.698;2023-06-26T14:10:41;4.18;;;1.70;;
16862;SDS011;52193;48.216;-1.698;2023-06-26T14:13:08;2.60;;;1.80;;
16862;SDS011;52193;48.216;-1.698;2023-06-26T14:15:36;1.88;;;1.50;;
16862;SDS011;52193;48.216;-1.698;2023-06-26T14:18:05;1.58;;;1.35;;
16862;SDS011;52193;48.216;-1.698;2023-06-26T14:20:32;1.60;;;1.20;;
16862;SDS011;52193;48.216;-1.698;2023-06-26T14:23:01;3.80;;;1.35;;
16862;SDS011;52193;48.216;-1.698;2023-06-26T14:25:28;2.10;;;1.50;;
16862;SDS011;52193;48.216;-1.698;2023-06-26T14:27:56;1.60;;;1.25;;
16862;SDS011;52193;48.216;-1.698;2023-06-26T14:30:24;2.65;;;1.73;;
16862;SDS011;52193;48.216;-1.698;2023-06-26T14:32:51;2.85;;;1.42;;
16862;SDS011;52193;48.216;-1.698;2023-06-26T14:35:18;2.85;;;1.52;;
16862;SDS011;52193;48.216;-1.698;2023-06-26T14:37:45;2.83;;;1.52;;